Time;durP1;ratioP1;P1;durP2;ratioP2;P2;SDS_P1;SDS_P2;PMS_P1;PMS_P2;Temp;Humidity;BMP_temperature;BMP_pressure;BME280_temperature;BME280_humidity;BME280_pressure;Samples;Min_cycle;Max_cycle;Signal;HPM_P1;HPM_P2
2021/04/05 00:01:18;;;;;;;13.18;9.28;;;;;;;1.53;68.89;99245.25;233896;1174;116438;-65
2021/04/05 00:06:22;;;;;;;11.93;7.60;;;;;;;1.52;69.13;99230.53;232746;1174;116012;-64
2021/04/05 00:11:26;;;;;;;11.15;7.05;;;;;;;1.49;68.88;99224.83;233217;1174;115353;-64
2021/04/05 00:16:29;;;;;;;16.57;8.70;;;;;;;1.43;70.25;99220.33;233288;1173;115154;-64
2021/04/05 00:21:32;;;;;;;14.17;8.50;;;;;;;1.37;70.01;99211.38;233181;1174;116052;-64
2021/04/05 00:26:35;;;;;;;21.43;9.68;;;;;;;1.38;69.42;99199.88;233039;1174;114568;-65
2021/04/05 00:31:39;;;;;;;13.00;9.05;;;;;;;1.33;69.84;99173.37;233704;1174;115843;-64
2021/04/05 00:36:42;;;;;;;11.43;8.05;;;;;;;1.36;69.70;99170.37;233672;1167;115739;-64
2021/04/05 00:41:46;;;;;;;14.38;9.65;;;;;;;1.30;70.74;99152.73;233968;1174;114979;-64
2021/04/05 00:46:50;;;;;;;11.35;7.75;;;;;;;1.27;70.38;99160.98;233174;1174;117083;-65
2021/04/05 00:51:54;;;;;;;14.90;8.03;;;;;;;1.24;70.64;99153.48;233377;1174;114890;-64
2021/04/05 00:56:58;;;;;;;15.60;9.23;;;;;;;1.23;70.88;99146.61;233914;1174;115237;-65
2021/04/05 01:02:01;;;;;;;17.10;10.65;;;;;;;1.24;70.34;99121.98;232590;1174;114832;-64
2021/04/05 01:07:05;;;;;;;14.18;9.28;;;;;;;1.23;71.04;99117.73;235075;1174;115379;-64
2021/04/05 01:12:09;;;;;;;14.45;8.53;;;;;;;1.22;70.66;99092.51;235015;1174;114951;-64
2021/04/05 01:17:12;;;;;;;15.95;7.55;;;;;;;1.18;70.50;99091.27;234317;1174;115774;-65
2021/04/05 01:22:15;;;;;;;12.97;8.23;;;;;;;1.17;71.39;99084.39;234235;1174;115067;-65
2021/04/05 01:27:18;;;;;;;16.73;10.53;;;;;;;1.16;71.20;99067.02;232526;1174;115332;-64
2021/04/05 01:32:21;;;;;;;17.48;8.83;;;;;;;1.15;71.19;99055.70;233908;1170;116032;-65
2021/04/05 01:37:24;;;;;;;15.75;8.83;;;;;;;1.14;71.65;99048.02;234164;1174;114615;-64
2021/04/05 01:42:28;;;;;;;15.55;9.10;;;;;;;1.14;71.47;99042.77;232616;1174;115083;-64
2021/04/05 01:47:31;;;;;;;20.25;10.93;;;;;;;1.13;71.86;99036.70;232628;1174;115002;-64
2021/04/05 01:52:39;;;;;;;19.27;10.80;;;;;;;1.13;71.18;99033.27;233219;1174;114742;-64
2021/04/05 01:57:44;;;;;;;13.85;9.05;;;;;;;1.07;71.81;99021.71;232544;1174;115382;-65
2021/04/05 02:02:48;;;;;;;15.03;9.53;;;;;;;1.06;71.48;99016.66;232986;1174;114987;-64
2021/04/05 02:07:52;;;;;;;14.63;9.17;;;;;;;1.03;72.06;99009.16;233117;1173;115310;-64
2021/04/05 02:12:57;;;;;;;14.03;9.17;;;;;;;0.96;72.09;98994.17;232997;1170;115347;-64
2021/04/05 02:18:01;;;;;;;17.55;10.18;;;;;;;0.99;72.17;98985.92;232544;1174;115574;-64
2021/04/05 02:23:05;;;;;;;19.00;10.10;;;;;;;0.97;72.63;98977.42;232731;1174;114831;-63
2021/04/05 02:28:09;;;;;;;16.00;9.65;;;;;;;0.95;72.77;98966.30;233203;1174;116028;-65
2021/04/05 02:33:16;;;;;;;15.08;10.28;;;;;;;0.94;72.30;98954.19;233045;1174;115117;-64
2021/04/05 02:38:20;;;;;;;13.90;8.50;;;;;;;0.92;73.01;98947.50;232467;1174;116462;-64
2021/04/05 02:43:25;;;;;;;16.95;8.53;;;;;;;0.89;72.11;98929.55;233353;1174;115365;-64
2021/04/05 02:48:40;;;;;;;18.35;10.40;;;;;;;0.94;72.20;98914.83;232691;1171;116098;-64
2021/04/05 02:53:50;;;;;;;16.08;10.83;;;;;;;0.96;72.59;98904.14;233383;1174;115636;-63
2021/04/05 02:58:55;;;;;;;14.07;9.53;;;;;;;0.94;72.58;98885.96;234915;1174;115313;-64
2021/04/05 03:03:59;;;;;;;15.77;11.20;;;;;;;0.93;72.02;98873.84;234930;1174;116314;-64
2021/04/05 03:09:05;;;;;;;15.37;9.53;;;;;;;0.93;72.34;98868.59;235172;1174;114852;-64
2021/04/05 03:14:10;;;;;;;18.07;9.43;;;;;;;0.94;72.57;98864.97;235113;1174;114648;-64
2021/04/05 03:19:16;;;;;;;17.40;12.40;;;;;;;0.92;72.38;98856.48;233333;1174;115183;-64
2021/04/05 03:24:21;;;;;;;18.30;11.43;;;;;;;0.94;72.44;98841.36;234423;1170;114903;-64
2021/04/05 03:29:25;;;;;;;17.30;10.60;;;;;;;0.94;71.96;98828.23;234062;1174;115839;-65
2021/04/05 03:34:32;;;;;;;13.77;10.07;;;;;;;0.92;72.40;98818.94;233981;1174;115053;-63
2021/04/05 03:39:36;;;;;;;11.55;7.55;;;;;;;0.83;72.30;98805.20;232542;1174;115198;-64
2021/04/05 03:44:58;;;;;;;13.60;8.90;;;;;;;0.77;71.75;98795.47;233426;1174;114758;-63
2021/04/05 03:50:21;;;;;;;20.25;10.85;;;;;;;0.74;71.98;98780.13;233474;1174;115189;-64
2021/04/05 03:55:28;;;;;;;20.60;12.75;;;;;;;0.73;71.67;98764.58;233064;1174;115075;-63
2021/04/05 04:00:34;;;;;;;15.95;12.35;;;;;;;0.72;71.48;98749.84;233143;1174;115128;-63
2021/04/05 04:05:47;;;;;;;18.05;9.73;;;;;;;0.71;71.60;98737.73;233126;1171;116185;-63
2021/04/05 04:10:54;;;;;;;18.15;11.55;;;;;;;0.74;71.54;98729.47;232753;1174;115245;-63
2021/04/05 04:15:59;;;;;;;;;;;;;;;0.76;70.81;98725.66;233670;1174;115227;-63
2021/04/05 04:21:08;;;;;;;18.13;11.10;;;;;;;0.78;71.34;98709.72;233582;1174;103117;-63
2021/04/05 04:26:12;;;;;;;20.00;10.40;;;;;;;0.84;70.67;98690.57;232777;1174;115013;-64
2021/04/05 04:31:20;;;;;;;16.28;11.43;;;;;;;0.92;70.72;98679.88;233288;1173;115107;-64
2021/04/05 04:36:25;;;;;;;22.10;11.80;;;;;;;1.05;69.72;98676.48;233792;1174;114947;-64
2021/04/05 04:41:30;;;;;;;9.65;6.55;;;;;;;1.20;69.89;98671.88;232854;1174;115096;-64
2021/04/05 04:46:34;;;;;;;16.25;11.13;;;;;;;1.41;68.95;98674.30;234054;1174;114913;-64
2021/04/05 04:51:38;;;;;;;17.57;10.33;;;;;;;1.57;68.16;98654.69;234230;1174;116101;-64
2021/04/05 04:56:41;;;;;;;15.38;8.75;;;;;;;1.81;67.74;98633.06;234394;1174;114922;-64
2021/04/05 05:01:47;;;;;;;19.93;11.50;;;;;;;2.10;65.78;98628.33;235206;1174;114787;-64
2021/04/05 05:06:57;;;;;;;11.00;9.50;;;;;;;2.39;64.84;98616.49;234947;1174;115076;-64
2021/04/05 05:12:00;;;;;;;14.85;9.45;;;;;;;2.73;65.29;98607.41;234158;1167;115963;-64
2021/04/05 05:17:05;;;;;;;5.73;2.90;;;;;;;2.94;63.02;98594.70;233377;1174;114927;-64
2021/04/05 05:22:09;;;;;;;11.95;7.90;;;;;;;3.26;62.33;98579.67;234111;1174;114863;-64
2021/04/05 05:27:13;;;;;;;9.65;6.80;;;;;;;3.44;60.33;98562.28;233654;1174;114537;-65
2021/04/05 05:32:18;;;;;;;9.55;7.38;;;;;;;3.65;60.29;98551.34;232496;1174;115617;-64
2021/04/05 05:37:22;;;;;;;11.53;7.77;;;;;;;3.77;60.39;98556.68;233654;1170;115788;-67
2021/04/05 05:42:57;;;;;;;13.10;8.00;;;;;;;3.91;59.32;98553.69;233246;1175;115347;-67
2021/04/05 05:48:23;;;;;;;8.25;5.90;;;;;;;4.04;59.87;98542.16;233265;1174;114635;-70
2021/04/05 05:53:56;;;;;;;10.13;7.40;;;;;;;4.31;58.45;98539.99;232642;1174;209233;-65
2021/04/05 05:59:36;;;;;;;11.30;8.37;;;;;;;4.48;56.89;98526.98;232725;1174;114772;-65
2021/04/05 06:04:58;;;;;;;11.18;7.35;;;;;;;4.65;56.04;98520.03;232944;1176;115399;-65
2021/04/05 06:10:18;;;;;;;5.10;3.70;;;;;;;4.83;55.90;98514.69;232621;1167;115536;-65
2021/04/05 06:15:26;;;;;;;5.97;5.37;;;;;;;4.96;55.60;98498.61;233714;1174;115877;-65
2021/04/05 06:20:47;;;;;;;6.33;4.68;;;;;;;5.04;55.80;98490.36;232585;1175;115440;-65
2021/04/05 06:26:05;;;;;;;7.77;3.57;;;;;;;5.05;54.75;98484.05;232530;1174;114469;-65
2021/04/05 06:31:36;;;;;;;5.85;5.25;;;;;;;5.22;54.46;98470.94;233595;1167;115402;-66
2021/04/05 06:36:53;;;;;;;7.37;5.40;;;;;;;5.47;53.34;98446.91;233808;1168;115525;-68
2021/04/05 06:42:44;;;;;;;6.63;6.00;;;;;;;5.65;53.70;98459.96;233210;1174;115677;-64
2021/04/05 06:47:50;;;;;;;11.00;5.30;;;;;;;6.06;52.91;98463.44;232549;1174;117298;-65
2021/04/05 06:53:17;;;;;;;5.75;5.18;;;;;;;6.33;51.52;98437.98;234334;1174;115757;-66
2021/04/05 06:58:24;;;;;;;7.23;4.90;;;;;;;6.51;52.58;98423.71;234498;1174;115174;-66
2021/04/05 07:03:52;;;;;;;5.20;4.70;;;;;;;6.72;51.87;98408.97;234876;1174;114476;-66
2021/04/05 07:09:20;;;;;;;8.00;5.97;;;;;;;6.96;51.72;98391.03;235093;1174;114910;-65
2021/04/05 07:14:51;;;;;;;7.67;4.97;;;;;;;7.45;49.96;98373.36;235191;1173;115270;-65
2021/04/05 07:19:58;;;;;;;3.85;3.53;;;;;;;8.19;47.37;98360.33;234957;1174;114809;-66
2021/04/05 07:25:03;;;;;;;5.40;3.68;;;;;;;8.76;45.88;98367.69;235145;1174;114885;-65
2021/04/05 07:30:23;;;;;;;5.50;4.53;;;;;;;9.13;45.94;98366.84;234518;1174;114966;-66
2021/04/05 07:36:15;;;;;;;5.90;4.78;;;;;;;9.66;46.00;98355.87;234217;1174;115336;-66
2021/04/05 07:41:33;;;;;;;6.57;5.00;;;;;;;10.15;43.63;98355.41;234267;1174;115059;-66
2021/04/05 07:47:01;;;;;;;4.05;3.35;;;;;;;10.49;44.65;98342.39;232931;1174;116723;-66
2021/04/05 07:52:46;;;;;;;5.50;4.50;;;;;;;10.20;43.63;98318.16;232628;1174;115956;-67
2021/04/05 07:58:27;;;;;;;3.15;2.90;;;;;;;10.08;43.51;98296.31;232791;1174;115001;-67
2021/04/05 08:04:05;;;;;;;9.65;4.10;;;;;;;10.36;46.38;98279.81;232644;1173;115942;-66
2021/04/05 08:09:14;;;;;;;4.23;3.68;;;;;;;10.62;46.18;98274.44;233165;1174;115552;-66
2021/04/05 08:14:51;;;;;;;6.00;3.93;;;;;;;10.64;42.90;98256.31;232965;1174;114763;-69
2021/04/05 08:20:07;;;;;;;6.85;4.63;;;;;;;10.71;43.67;98236.28;232844;1174;116129;-68
2021/04/05 08:25:31;;;;;;;5.27;3.93;;;;;;;10.84;44.99;98215.45;232752;1174;115830;-68
2021/04/05 08:30:59;;;;;;;5.30;4.73;;;;;;;10.94;43.03;98210.88;232699;1174;116161;-67
2021/04/05 08:36:17;;;;;;;8.20;4.60;;;;;;;11.06;42.53;98195.34;233051;1174;117277;-67
2021/04/05 08:41:30;;;;;;;12.05;5.33;;;;;;;11.26;43.54;98193.64;233802;1174;116844;-67
2021/04/05 08:46:36;;;;;;;10.10;4.05;;;;;;;11.40;42.76;98194.61;232931;1174;116438;-68
2021/04/05 08:51:45;;;;;;;7.90;4.75;;;;;;;11.41;43.18;98182.86;233200;1170;115754;-68
2021/04/05 08:56:59;;;;;;;12.30;5.60;;;;;;;11.52;42.24;98173.72;233444;1174;117160;-68
2021/04/05 09:02:32;;;;;;;4.00;3.50;;;;;;;11.59;42.76;98168.87;234484;1170;116020;-68
2021/04/05 09:07:35;;;;;;;8.70;3.43;;;;;;;11.93;43.23;98142.14;234815;1174;115626;-68
2021/04/05 09:12:40;;;;;;;4.97;4.10;;;;;;;12.12;42.08;98127.01;232246;1174;115438;-67
2021/04/05 09:17:58;;;;;;;5.70;3.48;;;;;;;12.20;42.30;98130.94;234798;1174;116072;-67
2021/04/05 09:23:23;;;;;;;8.57;4.33;;;;;;;12.18;41.99;98125.08;234299;1174;115661;-67
2021/04/05 09:28:51;;;;;;;5.25;3.80;;;;;;;12.38;42.01;98121.38;233286;1175;117835;-67
2021/04/05 09:34:17;;;;;;;4.03;3.70;;;;;;;12.63;39.39;98101.55;232703;1174;116746;-67
2021/04/05 09:39:33;;;;;;;10.50;4.70;;;;;;;12.76;39.44;98103.52;233246;1174;115912;-65
2021/04/05 09:45:02;;;;;;;8.43;4.08;;;;;;;12.48;38.08;98081.17;233430;1173;116339;-66
2021/04/05 09:50:09;;;;;;;5.37;3.63;;;;;;;12.46;40.58;98084.13;232656;1174;116542;-66
2021/04/05 09:55:16;;;;;;;7.05;3.98;;;;;;;12.62;39.61;98073.22;233497;1167;116720;-67
2021/04/05 10:00:22;;;;;;;8.43;4.70;;;;;;;12.78;39.30;98077.29;232799;1174;116230;-67
2021/04/05 10:05:29;;;;;;;7.10;4.95;;;;;;;12.76;40.79;98066.09;233765;1174;115482;-66
2021/04/05 10:10:37;;;;;;;6.33;4.30;;;;;;;12.60;40.39;98048.66;233060;1174;115262;-66
2021/04/05 10:15:45;;;;;;;7.60;3.57;;;;;;;12.77;40.35;98048.95;233652;1174;115920;-67
2021/04/05 10:20:52;;;;;;;5.25;3.65;;;;;;;12.77;41.45;98032.92;232755;1174;115738;-63
2021/04/05 10:26:03;;;;;;;8.93;4.75;;;;;;;12.90;40.38;98037.52;232861;1174;115107;-69
2021/04/05 10:31:15;;;;;;;8.70;4.78;;;;;;;12.85;40.14;98028.77;232614;1174;115806;-68
2021/04/05 10:36:24;;;;;;;4.05;3.28;;;;;;;12.67;40.18;98028.50;233398;1174;116359;-67
2021/04/05 10:41:31;;;;;;;9.17;4.43;;;;;;;12.59;42.20;98010.44;232768;1174;116955;-66
2021/04/05 10:46:42;;;;;;;14.13;5.33;;;;;;;12.61;40.48;97988.77;233145;1175;116535;-66
2021/04/05 10:51:54;;;;;;;7.43;4.48;;;;;;;12.65;41.91;97998.59;232880;1174;116180;-66
2021/04/05 10:57:06;;;;;;;6.90;4.85;;;;;;;12.68;41.74;97981.18;234097;1174;115868;-66
2021/04/05 11:02:37;;;;;;;7.35;3.80;;;;;;;12.68;41.02;97978.50;235099;1174;116203;-66
2021/04/05 11:07:46;;;;;;;7.13;4.68;;;;;;;12.61;41.59;97970.85;235120;1174;114994;-65
2021/04/05 11:13:14;;;;;;;7.98;5.05;;;;;;;12.61;43.25;97959.36;235015;1174;115783;-65
2021/04/05 11:18:22;;;;;;;10.17;4.70;;;;;;;12.74;42.61;97958.63;234628;1174;115437;-68
2021/04/05 11:23:34;;;;;;;6.08;4.38;;;;;;;12.65;42.36;97955.82;234930;1174;115630;-66
2021/04/05 11:28:42;;;;;;;7.80;5.03;;;;;;;12.47;43.15;97936.06;233454;1174;116470;-66
2021/04/05 11:33:52;;;;;;;7.80;4.93;;;;;;;12.47;43.07;97932.59;233579;1174;115153;-65
2021/04/05 11:38:59;;;;;;;12.05;4.80;;;;;;;12.50;42.86;97934.69;234000;1174;115840;-68
2021/04/05 11:44:04;;;;;;;9.87;4.40;;;;;;;12.65;43.28;97922.95;233453;1174;115556;-66
2021/04/05 11:49:17;;;;;;;8.10;5.50;;;;;;;12.74;42.72;97910.52;233312;1174;115703;-65
2021/04/05 11:54:33;;;;;;;8.40;4.70;;;;;;;12.75;41.41;97891.50;233225;1174;117362;-65
2021/04/05 11:59:47;;;;;;;8.50;4.50;;;;;;;12.70;41.68;97875.55;233063;1174;116044;-65
2021/04/05 12:05:02;;;;;;;6.70;3.70;;;;;;;12.53;41.89;97891.35;232843;1174;118190;-64
2021/04/05 12:10:28;;;;;;;8.18;4.08;;;;;;;12.08;41.91;97874.92;233552;1174;116040;-67
2021/04/05 12:15:34;;;;;;;9.33;4.53;;;;;;;12.01;42.28;97863.80;232605;1174;116418;-67
2021/04/05 12:20:39;;;;;;;9.50;4.93;;;;;;;11.99;42.04;97865.17;232748;1175;116671;-67
2021/04/05 12:25:50;;;;;;;9.05;4.28;;;;;;;11.96;43.18;97863.08;233854;1174;115832;-68
2021/04/05 12:30:55;;;;;;;8.93;3.98;;;;;;;11.92;40.25;97843.41;232646;1174;117239;-67
2021/04/05 12:36:17;;;;;;;8.23;4.05;;;;;;;11.95;40.85;97845.47;232322;1174;117273;-67
2021/04/05 12:41:20;;;;;;;8.40;4.80;;;;;;;11.85;41.56;97832.28;233192;1174;116948;-67
2021/04/05 12:46:28;;;;;;;7.10;3.65;;;;;;;11.84;41.73;97833.37;233796;1174;116216;-67
2021/04/05 12:51:36;;;;;;;7.07;3.53;;;;;;;11.68;40.19;97846.88;232502;1174;115712;-67
2021/04/05 12:56:42;;;;;;;7.17;4.83;;;;;;;11.64;40.92;97840.52;233358;1171;115824;-67
2021/04/05 13:01:53;;;;;;;7.45;4.85;;;;;;;11.58;41.17;97839.03;233423;1174;116499;-65
2021/04/05 13:07:10;;;;;;;10.97;3.77;;;;;;;11.52;41.03;97826.03;232949;1174;115391;-66
2021/04/05 13:12:40;;;;;;;6.83;3.50;;;;;;;11.61;41.87;97806.44;234177;1174;116463;-67
2021/04/05 13:17:49;;;;;;;13.05;5.80;;;;;;;11.72;40.66;97809.73;234302;1173;116596;-66
2021/04/05 13:23:03;;;;;;;4.30;2.60;;;;;;;11.73;39.89;97790.77;234279;1174;115285;-65
2021/04/05 13:28:07;;;;;;;6.03;3.00;;;;;;;11.83;41.36;97778.39;235167;1174;115458;-65
2021/04/05 13:33:15;;;;;;;11.53;3.70;;;;;;;11.77;41.44;97762.44;234595;1167;115024;-68
2021/04/05 13:38:24;;;;;;;10.78;2.95;;;;;;;11.66;40.21;97763.64;233707;1174;115359;-66
2021/04/05 13:43:28;;;;;;;7.83;4.13;;;;;;;11.50;40.58;97751.61;233219;1174;115597;-66
2021/04/05 13:48:35;;;;;;;6.43;4.43;;;;;;;11.33;41.06;97745.97;233836;1174;116204;-68
2021/04/05 13:53:40;;;;;;;;;;;;;;;11.16;42.19;97748.34;233590;1174;115250;-65
2021/04/05 13:58:50;;;;;;;7.45;3.90;;;;;;;11.10;42.79;97750.28;234326;1174;103111;-65
2021/04/05 14:03:57;;;;;;;7.15;4.03;;;;;;;11.07;42.63;97753.52;233112;1174;115114;-67
2021/04/05 14:09:02;;;;;;;5.10;3.20;;;;;;;11.12;43.25;97751.58;232947;1174;116044;-67
2021/04/05 14:14:09;;;;;;;9.03;4.43;;;;;;;11.08;41.51;97750.56;233099;1174;115191;-65
2021/04/05 14:19:18;;;;;;;5.73;3.57;;;;;;;11.07;43.16;97759.64;233252;1174;115397;-64
2021/04/05 14:24:29;;;;;;;5.25;4.35;;;;;;;10.54;45.50;97790.89;232976;1174;114687;-66
2021/04/05 14:29:47;;;;;;;8.23;4.77;;;;;;;10.05;55.29;97842.41;232749;1174;114795;-67
2021/04/05 14:34:53;;;;;;;9.97;5.90;;;;;;;9.42;61.77;97868.05;232778;1174;115561;-67
2021/04/05 14:40:04;;;;;;;15.30;6.25;;;;;;;9.20;65.23;97873.69;233930;1174;115531;-68
2021/04/05 14:45:13;;;;;;;13.85;6.15;;;;;;;8.81;69.28;97880.72;232788;1174;115448;-66
2021/04/05 14:50:25;;;;;;;12.83;6.48;;;;;;;8.35;70.99;97900.11;232488;1174;115370;-66
2021/04/05 14:55:35;;;;;;;8.70;5.40;;;;;;;7.75;72.80;97895.47;233717;1174;115338;-65
2021/04/05 15:00:40;;;;;;;10.47;5.73;;;;;;;7.52;73.67;97907.33;234263;1174;114866;-67
2021/04/05 15:05:48;;;;;;;7.17;2.87;;;;;;;7.08;72.95;97910.28;232787;1171;115013;-65
2021/04/05 15:11:00;;;;;;;5.23;3.33;;;;;;;6.67;74.74;97908.45;233700;1174;115480;-68
2021/04/05 15:16:14;;;;;;;5.17;2.47;;;;;;;6.36;76.01;97933.88;235014;1174;114931;-67
2021/04/05 15:21:20;;;;;;;5.08;3.35;;;;;;;6.11;75.82;97936.28;235063;1174;115803;-70
2021/04/05 15:26:26;;;;;;;2.03;1.50;;;;;;;5.85;78.04;97938.61;235083;1174;115231;-66
2021/04/05 15:31:31;;;;;;;2.80;2.30;;;;;;;5.72;78.44;97941.65;235073;1174;115575;-68
2021/04/05 15:36:35;;;;;;;4.90;2.90;;;;;;;5.57;78.22;97936.97;234220;1174;117304;-66
2021/04/05 15:41:40;;;;;;;4.43;2.78;;;;;;;5.48;79.07;97935.82;234181;1174;116402;-68
2021/04/05 15:47:11;;;;;;;4.10;3.43;;;;;;;5.42;80.17;97952.65;233038;1174;116203;-67
2021/04/05 15:52:17;;;;;;;0.98;0.95;;;;;;;4.97;76.02;98001.13;232850;1174;115574;-67
2021/04/05 15:57:25;;;;;;;1.55;1.45;;;;;;;4.44;76.15;98008.70;234514;1174;116035;-66
2021/04/05 16:02:45;;;;;;;1.23;1.03;;;;;;;4.29;76.31;98017.92;233743;1174;117390;-65
2021/04/05 16:07:56;;;;;;;4.93;1.78;;;;;;;4.30;78.43;98024.80;233907;1174;115365;-67
2021/04/05 16:13:22;;;;;;;3.07;1.40;;;;;;;4.30;77.82;98026.64;234079;1174;115521;-67
2021/04/05 16:18:38;;;;;;;4.30;2.33;;;;;;;4.06;76.71;98039.11;232541;1174;116950;-69
2021/04/05 16:24:07;;;;;;;1.78;1.48;;;;;;;3.66;76.35;98045.19;232673;1174;116256;-69
2021/04/05 16:29:22;;;;;;;1.58;1.48;;;;;;;3.43;78.38;98055.72;233039;1174;117036;-68
2021/04/05 16:34:29;;;;;;;1.70;1.18;;;;;;;3.26;77.67;98052.98;232472;1176;115638;-66
2021/04/05 16:39:36;;;;;;;1.68;1.58;;;;;;;3.24;79.04;98060.31;232558;1174;115975;-67
2021/04/05 16:44:42;;;;;;;;;;;;;;;3.18;78.27;98076.20;233205;1170;115818;-69
2021/04/05 16:49:55;;;;;;;2.68;1.38;;;;;;;3.06;78.78;98068.28;234673;1174;103989;-67
2021/04/05 16:55:13;;;;;;;4.13;1.50;;;;;;;2.87;79.48;98078.10;233094;1174;115511;-68
2021/04/05 17:00:23;;;;;;;6.20;2.30;;;;;;;2.77;80.07;98080.47;233583;1174;116515;-66
2021/04/05 17:05:32;;;;;;;5.75;3.68;;;;;;;2.78;78.85;98095.23;233361;1174;115131;-67
2021/04/05 17:10:47;;;;;;;1.43;1.33;;;;;;;2.71;79.50;98107.70;232546;1174;117194;-66
2021/04/05 17:15:51;;;;;;;3.70;3.10;;;;;;;2.54;81.74;98125.13;234745;1174;115887;-64
2021/04/05 17:21:04;;;;;;;1.87;1.40;;;;;;;2.41;80.85;98160.30;234500;1174;116580;-65
2021/04/05 17:26:21;;;;;;;1.70;1.28;;;;;;;2.14;78.31;98167.66;234925;1174;115521;-65
2021/04/05 17:31:35;;;;;;;1.23;0.98;;;;;;;2.02;79.08;98172.84;233217;1174;115602;-66
2021/04/05 17:36:43;;;;;;;1.43;1.33;;;;;;;1.85;78.71;98181.49;235089;1174;181946;-66
2021/04/05 17:42:01;;;;;;;0.80;0.80;;;;;;;1.67;78.94;98188.33;235038;1173;115441;-66
2021/04/05 17:47:04;;;;;;;2.35;1.10;;;;;;;1.58;80.23;98197.49;234723;1174;115088;-66
2021/04/05 17:52:11;;;;;;;0.80;0.80;;;;;;;1.61;79.74;98199.69;234390;1174;114483;-65
2021/04/05 17:57:52;;;;;;;3.67;1.50;;;;;;;1.60;79.86;98205.16;234338;1170;115843;-65
2021/04/05 18:02:58;;;;;;;1.73;1.20;;;;;;;1.44;79.86;98200.45;232511;1174;115024;-66
2021/04/05 18:08:15;;;;;;;2.40;0.93;;;;;;;1.39;81.87;98205.53;233445;1174;115781;-65
2021/04/05 18:13:31;;;;;;;1.97;1.40;;;;;;;1.41;82.41;98188.55;233090;1174;115125;-64
2021/04/05 18:18:43;;;;;;;2.00;1.60;;;;;;;1.40;82.05;98213.20;233477;1174;115085;-65
2021/04/05 18:24:17;;;;;;;2.50;1.87;;;;;;;1.40;81.61;98220.27;233544;1174;114802;-64
2021/04/05 18:29:26;;;;;;;2.18;1.93;;;;;;;1.49;82.65;98248.69;232467;1174;116696;-66
2021/04/05 18:34:44;;;;;;;1.98;1.40;;;;;;;1.42;82.59;98234.80;233291;1174;115560;-65
2021/04/05 18:39:57;;;;;;;2.03;1.40;;;;;;;1.37;82.42;98252.19;232584;1174;115860;-65
2021/04/05 18:45:11;;;;;;;3.83;2.40;;;;;;;1.37;82.72;98260.07;232515;1170;115238;-64
2021/04/05 18:50:18;;;;;;;2.55;1.40;;;;;;;1.39;81.81;98258.84;233712;1174;115889;-64
2021/04/05 18:55:25;;;;;;;3.20;1.70;;;;;;;1.30;81.52;98255.66;233246;1176;117260;-64
2021/04/05 19:00:50;;;;;;;1.60;1.30;;;;;;;1.22;82.49;98260.38;233437;1168;115541;-64
2021/04/05 19:06:06;;;;;;;3.55;1.93;;;;;;;1.27;82.69;98239.52;233677;1174;115475;-65
2021/04/05 19:11:22;;;;;;;4.00;1.30;;;;;;;1.30;82.45;98252.23;232571;1174;116126;-65
2021/04/05 19:16:39;;;;;;;4.70;1.28;;;;;;;1.22;81.92;98257.75;233723;1174;115954;-66
2021/04/05 19:21:48;;;;;;;1.90;1.55;;;;;;;1.14;82.34;98250.12;234216;1174;115398;-65
2021/04/05 19:27:21;;;;;;;1.80;1.67;;;;;;;1.21;82.32;98251.70;233449;1174;115454;-64
2021/04/05 19:33:03;;;;;;;2.60;1.83;;;;;;;1.20;82.31;98275.53;235013;1174;115943;-65
2021/04/05 19:38:32;;;;;;;2.33;1.20;;;;;;;1.17;82.32;98302.19;235138;1174;115630;-64
2021/04/05 19:44:03;;;;;;;5.48;2.55;;;;;;;1.16;82.02;98305.83;234992;1174;115226;-64
2021/04/05 19:49:30;;;;;;;3.03;1.93;;;;;;;1.17;81.43;98317.94;234227;1174;114662;-64
2021/04/05 19:55:01;;;;;;;5.30;2.10;;;;;;;1.16;80.75;98305.83;234636;1174;115158;-64
2021/04/05 20:00:23;;;;;;;4.53;3.33;;;;;;;1.14;80.78;98295.53;233424;1174;114503;-64
2021/04/05 20:05:47;;;;;;;3.43;2.67;;;;;;;1.07;81.12;98288.70;234091;1174;114870;-65
2021/04/05 20:11:19;;;;;;;2.35;1.35;;;;;;;0.91;81.13;98261.94;232780;1174;115295;-63
2021/04/05 20:17:13;;;;;;;5.63;3.53;;;;;;;0.89;82.05;98297.27;233063;1174;115673;-65
2021/04/05 20:22:27;;;;;;;6.45;3.35;;;;;;;0.84;81.42;98287.39;232036;1177;115599;-64
2021/04/05 20:28:08;;;;;;;7.50;4.13;;;;;;;0.83;81.52;98305.95;233492;1174;116082;-64
2021/04/05 20:33:42;;;;;;;2.23;1.70;;;;;;;0.70;82.25;98306.80;232959;1174;116129;-64
2021/04/05 20:39:01;;;;;;;10.68;5.45;;;;;;;0.72;82.43;98310.02;233408;1175;116256;-64
2021/04/05 20:44:13;;;;;;;9.18;3.80;;;;;;;0.73;82.47;98303.77;233249;1174;116970;-64
2021/04/05 20:49:43;;;;;;;6.93;3.38;;;;;;;0.65;82.24;98309.22;232840;1174;114529;-64
2021/04/05 20:55:01;;;;;;;7.70;4.20;;;;;;;0.59;82.23;98325.80;232840;1174;115217;-64
2021/04/05 21:00:11;;;;;;;12.00;5.03;;;;;;;0.56;82.82;98326.20;234005;1174;115050;-64
2021/04/05 21:05:22;;;;;;;7.73;3.40;;;;;;;0.53;83.30;98313.50;232940;1174;114719;-65
2021/04/05 21:10:27;;;;;;;9.83;4.67;;;;;;;0.58;82.56;98326.81;232670;1174;115615;-65
2021/04/05 21:15:41;;;;;;;10.90;5.20;;;;;;;0.58;82.12;98330.23;233278;1174;115053;-64
2021/04/05 21:20:52;;;;;;;7.95;5.43;;;;;;;0.56;81.91;98342.75;233463;1174;114616;-63
2021/04/05 21:25:57;;;;;;;12.25;5.25;;;;;;;0.53;83.04;98331.86;234808;1170;114371;-64
2021/04/05 21:31:22;;;;;;;4.73;1.50;;;;;;;0.48;82.88;98323.80;234091;1174;115046;-64
2021/04/05 21:36:31;;;;;;;14.70;5.90;;;;;;;0.54;82.16;98315.12;234929;1177;115058;-64
2021/04/05 21:42:33;;;;;;;12.27;5.23;;;;;;;0.47;82.07;98330.05;234011;1174;115024;-65
2021/04/05 21:47:43;;;;;;;10.03;5.08;;;;;;;0.41;82.33;98320.38;233687;1169;115038;-64
2021/04/05 21:52:51;;;;;;;13.27;5.23;;;;;;;0.44;82.67;98333.88;235012;1174;116619;-64
2021/04/05 21:57:58;;;;;;;9.20;5.40;;;;;;;0.43;82.32;98347.19;234944;1167;116054;-64
2021/04/05 22:03:02;;;;;;;11.73;4.85;;;;;;;0.46;82.39;98352.03;234132;1174;115616;-64
2021/04/05 22:08:08;;;;;;;9.60;4.43;;;;;;;0.43;81.76;98349.81;233967;1176;115501;-64
2021/04/05 22:13:18;;;;;;;8.95;4.15;;;;;;;0.41;82.58;98359.69;233647;1174;114482;-64
2021/04/05 22:18:31;;;;;;;9.97;5.00;;;;;;;0.41;82.61;98349.20;233677;1174;115673;-64
2021/04/05 22:23:47;;;;;;;3.27;2.60;;;;;;;0.24;82.71;98336.53;233125;1173;115386;-63
2021/04/05 22:29:07;;;;;;;5.43;2.33;;;;;;;0.26;83.50;98362.53;232493;1175;114825;-64
2021/04/05 22:34:13;;;;;;;8.05;4.20;;;;;;;0.30;82.83;98359.31;232706;1167;115679;-63
2021/04/05 22:39:28;;;;;;;7.55;3.05;;;;;;;0.26;82.22;98365.97;233043;1174;115029;-65
2021/04/05 22:44:34;;;;;;;8.47;4.00;;;;;;;0.23;82.49;98374.23;232883;1174;115975;-65
2021/04/05 22:49:49;;;;;;;5.55;3.05;;;;;;;0.13;83.54;98370.39;233100;1175;115189;-65
2021/04/05 22:54:55;;;;;;;4.67;3.97;;;;;;;0.10;83.22;98374.21;232768;1174;116751;-64
2021/04/05 23:00:01;;;;;;;5.73;3.07;;;;;;;0.13;82.80;98373.81;232900;1176;115068;-65
2021/04/05 23:05:07;;;;;;;5.70;3.43;;;;;;;0.07;81.93;98385.09;232746;1174;116021;-65
2021/04/05 23:10:17;;;;;;;6.43;3.38;;;;;;;0.06;82.23;98380.86;233179;1174;116588;-65
2021/04/05 23:15:39;;;;;;;6.95;3.45;;;;;;;0.07;82.30;98390.33;233071;1175;116285;-67
2021/04/05 23:20:49;;;;;;;4.20;2.45;;;;;;;0.03;81.79;98391.73;234839;1174;117080;-65
2021/04/05 23:25:55;;;;;;;3.33;2.23;;;;;;;-0.06;81.09;98387.71;233693;1167;117914;-65
2021/04/05 23:31:05;;;;;;;9.07;2.67;;;;;;;-0.08;80.93;98394.96;233046;1170;114511;-65
2021/04/05 23:36:10;;;;;;;9.20;3.40;;;;;;;-0.03;81.49;98395.17;233760;1174;115371;-65
2021/04/05 23:41:19;;;;;;;4.20;2.95;;;;;;;-0.02;81.08;98397.59;235006;1170;114898;-65
2021/04/05 23:46:24;;;;;;;6.63;3.13;;;;;;;0.03;79.69;98404.02;234495;1174;114968;-65
2021/04/05 23:51:34;;;;;;;3.40;1.90;;;;;;;-0.02;79.63;98408.08;234180;1173;115429;-65
2021/04/05 23:56:40;;;;;;;5.55;3.35;;;;;;;-0.04;80.31;98410.09;233702;1174;114856;-65
